createdAt,value
2022-11-16T00:00:05.377Z,97153.22
2022-11-16T00:01:08.912Z,97154.34
2022-11-16T00:02:10.824Z,97153.56
2022-11-16T00:03:12.247Z,97151.25
2022-11-16T00:04:13.650Z,97155.44
2022-11-16T00:05:15.099Z,97159.63
2022-11-16T00:06:16.943Z,97154.69
2022-11-16T00:07:18.360Z,97158.88
2022-11-16T00:08:19.720Z,97156.22
2022-11-16T00:09:21.051Z,97158.09
2022-11-16T00:10:22.400Z,97158.88
2022-11-16T00:11:23.728Z,97157.75
2022-11-16T00:12:25.051Z,97164.19
2022-11-16T00:13:26.360Z,97168.38
2022-11-16T00:14:28.950Z,97160.41
2022-11-16T00:15:30.279Z,97164.59
2022-11-16T00:16:32.171Z,97161.63
2022-11-16T00:17:33.470Z,97169.91
2022-11-16T00:18:35.095Z,97165.72
2022-11-16T00:19:36.671Z,97167.25
2022-11-16T00:20:38.380Z,97164.19
2022-11-16T00:21:39.828Z,97163.06
2022-11-16T00:22:41.157Z,97165.72
2022-11-16T00:23:42.494Z,97162.28
2022-11-16T00:24:43.795Z,97165.38
2022-11-16T00:25:45.295Z,97165.38
2022-11-16T00:26:47.052Z,97166.16
2022-11-16T00:27:48.359Z,97166.47
2022-11-16T00:28:50.595Z,97172.56
2022-11-16T00:29:51.951Z,97168.81
2022-11-16T00:31:00.647Z,97176.78
2022-11-16T00:32:02.032Z,97174.13
2022-11-16T00:33:04.200Z,97179.72
2022-11-16T00:34:05.516Z,97175.19
2022-11-16T00:35:07.198Z,97178.97
2022-11-16T00:36:10.146Z,97169.47
2022-11-16T00:37:11.585Z,97169.06
2022-11-16T00:38:12.918Z,97163.75
2022-11-16T00:39:17.686Z,97164.06
2022-11-16T00:40:20.675Z,97164.53
2022-11-16T00:41:22.087Z,97154.56
2022-11-16T00:42:23.438Z,97155.81
2022-11-16T00:43:25.259Z,97151.94
2022-11-16T00:44:26.732Z,97140.22
2022-11-16T00:45:28.126Z,97146.28
2022-11-16T00:46:29.480Z,97142.09
2022-11-16T00:47:30.802Z,97135.69
2022-11-16T00:48:32.565Z,97138.78
2022-11-16T00:49:34.207Z,97140.56
2022-11-16T00:50:35.610Z,97142.84
2022-11-16T00:51:37.206Z,97143.97
2022-11-16T00:52:38.822Z,97140.56
2022-11-16T00:53:40.202Z,97145.75
2022-11-16T00:54:41.841Z,97144.19
2022-11-16T00:55:44.197Z,97143.44
2022-11-16T00:56:45.676Z,97151.72
2022-11-16T00:57:47.257Z,97150.94
2022-11-16T00:58:49.218Z,97144.09
2022-11-16T00:59:51.243Z,97147.84
2022-11-16T01:00:52.618Z,97157.69
2022-11-16T01:01:54.070Z,97146.63
2022-11-16T01:02:55.461Z,97156.91
2022-11-16T01:03:56.763Z,97151.16
2022-11-16T01:04:58.127Z,97149.63
2022-11-16T01:06:00.279Z,97138.25
2022-11-16T01:07:01.649Z,97129.53
2022-11-16T01:08:03.328Z,97130.66
2022-11-16T01:09:04.739Z,97134.06
2022-11-16T01:10:10.934Z,97133.28
2022-11-16T01:11:13.795Z,97135.25
2022-11-16T01:12:16.843Z,97125.78
2022-11-16T01:13:18.195Z,97129.53
2022-11-16T01:14:19.550Z,97124.56
2022-11-16T01:15:21.858Z,97126.47
2022-11-16T01:16:23.871Z,97124.13
2022-11-16T01:17:25.217Z,97127.53
2022-11-16T01:18:26.576Z,97115.16
2022-11-16T01:19:27.994Z,97118.94
2022-11-16T01:20:29.468Z,97112.09
2022-11-16T01:21:30.861Z,97115.72
2022-11-16T01:22:34.591Z,97112.97
2022-11-16T01:23:35.930Z,97114.41
2022-11-16T01:24:37.308Z,97118.16
2022-11-16T01:25:38.652Z,97117.41
2022-11-16T01:26:40.073Z,97123.81
2022-11-16T01:27:42.033Z,97126.88
2022-11-16T01:28:48.876Z,97121.94
2022-11-16T01:29:50.266Z,97130.19
2022-11-16T01:30:51.940Z,97126.78
2022-11-16T01:31:54.072Z,97135.50
2022-11-16T01:32:55.405Z,97132.84
2022-11-16T01:33:56.915Z,97135.19
2022-11-16T01:35:01.514Z,97132.19
2022-11-16T01:36:12.435Z,97134.06
2022-11-16T01:37:13.777Z,97128.75
2022-11-16T01:38:16.677Z,97125.44
2022-11-16T01:39:18.060Z,97120.03
2022-11-16T01:40:27.042Z,97126.22
2022-11-16T01:41:28.796Z,97117.06
2022-11-16T01:42:33.340Z,97114.75
2022-11-16T01:43:56.559Z,97115.16
2022-11-16T01:45:03.379Z,97117.72
2022-11-16T01:46:04.831Z,97114.28
2022-11-16T01:47:09.732Z,97106.13
2022-11-16T01:48:13.552Z,97107.56
2022-11-16T01:49:17.561Z,97105.25
2022-11-16T01:50:19.574Z,97113.22
2022-11-16T01:51:23.469Z,97109.00
2022-11-16T01:52:28.688Z,97102.25
2022-11-16T01:53:30.107Z,97105.03
2022-11-16T01:54:32.805Z,97106.13
2022-11-16T01:55:36.930Z,97101.50
2022-11-16T01:56:50.152Z,97102.59
2022-11-16T01:58:12.047Z,97092.66
2022-11-16T01:59:15.023Z,97093.78
2022-11-16T02:00:17.013Z,97093.44
2022-11-16T02:01:28.650Z,97092.00
2022-11-16T02:02:33.342Z,97093.88
2022-11-16T02:03:36.776Z,97098.41
2022-11-16T02:04:38.153Z,97093.44
2022-11-16T02:05:49.574Z,97095.75
2022-11-16T02:06:53.888Z,97088.13
2022-11-16T02:08:15.136Z,97085.91
2022-11-16T02:09:36.197Z,97089.25
2022-11-16T02:10:45.948Z,97088.78
2022-11-16T02:11:59.148Z,97093.78
2022-11-16T02:13:09.412Z,97082.06
2022-11-16T02:14:26.034Z,97084.97
2022-11-16T02:15:34.024Z,97088.78
2022-11-16T02:16:58.688Z,97087.16
2022-11-16T02:18:11.327Z,97079.19
2022-11-16T02:19:37.058Z,97092.03
2022-11-16T02:20:38.840Z,97088.94
2022-11-16T02:22:01.210Z,97088.19
2022-11-16T02:23:21.696Z,97090.03
2022-11-16T02:24:38.396Z,97090.03
2022-11-16T02:25:42.596Z,97096.44
2022-11-16T02:27:02.575Z,97083.53
2022-11-16T02:28:22.604Z,97090.38
2022-11-16T02:29:29.913Z,97089.72
2022-11-16T02:30:31.373Z,97091.59
2022-11-16T02:31:37.680Z,97096.00
2022-11-16T02:32:42.132Z,97088.84
2022-11-16T02:33:44.115Z,97094.13
2022-11-16T02:34:57.551Z,97096.31
2022-11-16T02:36:01.690Z,97091.81
2022-11-16T02:37:04.737Z,97089.19
2022-11-16T02:38:26.859Z,97094.13
2022-11-16T02:39:31.025Z,97097.13
2022-11-16T02:40:33.308Z,97089.19
2022-11-16T02:41:37.970Z,97089.59
2022-11-16T02:42:42.000Z,97091.47
2022-11-16T02:43:52.422Z,97085.31
2022-11-16T02:44:54.609Z,97081.47
2022-11-16T02:46:00.208Z,97094.34
2022-11-16T02:47:04.958Z,97084.97
2022-11-16T02:48:09.658Z,97089.19
2022-11-16T02:49:13.961Z,97082.66
2022-11-16T02:50:16.756Z,97089.06
2022-11-16T02:51:18.921Z,97089.84
2022-11-16T02:52:22.588Z,97083.00
2022-11-16T02:53:24.946Z,97086.06
2022-11-16T02:54:27.962Z,97083.41
2022-11-16T02:55:33.756Z,97085.31
2022-11-16T02:56:42.954Z,97084.53
2022-11-16T02:57:50.312Z,97080.66
2022-11-16T02:58:51.695Z,97086.31
2022-11-16T02:59:55.366Z,97085.19
2022-11-16T03:00:56.878Z,97078.13
2022-11-16T03:02:02.076Z,97085.66
2022-11-16T03:03:22.889Z,97083.31
2022-11-16T03:04:30.519Z,97079.88
2022-11-16T03:05:35.240Z,97089.19
2022-11-16T03:06:41.176Z,97088.38
2022-11-16T03:07:48.035Z,97091.03
2022-11-16T03:08:52.777Z,97084.53
2022-11-16T03:09:55.323Z,97089.84
2022-11-16T03:11:02.041Z,97087.19
2022-11-16T03:12:07.176Z,97078.81
2022-11-16T03:13:11.384Z,97081.22
2022-11-16T03:14:16.132Z,97076.47
2022-11-16T03:15:18.197Z,97080.66
2022-11-16T03:16:22.066Z,97084.09
2022-11-16T03:17:24.381Z,97077.59
2022-11-16T03:18:28.072Z,97076.47
2022-11-16T03:19:38.495Z,97085.97
2022-11-16T03:20:40.827Z,97080.66
2022-11-16T03:21:49.566Z,97076.16
2022-11-16T03:22:53.880Z,97079.88
2022-11-16T03:23:55.602Z,97080.66
2022-11-16T03:24:57.244Z,97078.69
2022-11-16T03:26:00.203Z,97076.81
2022-11-16T03:27:09.107Z,97078.00
2022-11-16T03:28:17.997Z,97073.06
2022-11-16T03:29:31.554Z,97069.41
2022-11-16T03:30:40.144Z,97072.06
2022-11-16T03:31:48.281Z,97069.75
2022-11-16T03:33:03.601Z,97065.56
2022-11-16T03:34:07.680Z,97067.88
2022-11-16T03:35:21.428Z,97057.63
2022-11-16T03:36:26.216Z,97063.34
2022-11-16T03:37:29.491Z,97065.22
2022-11-16T03:38:34.866Z,97059.16
2022-11-16T03:39:38.424Z,97052.31
2022-11-16T03:40:41.700Z,97054.88
2022-11-16T03:41:44.552Z,97057.16
2022-11-16T03:42:47.136Z,97050.00
2022-11-16T03:43:49.146Z,97050.00
2022-11-16T03:44:50.649Z,97057.63
2022-11-16T03:45:52.743Z,97052.31
2022-11-16T03:46:54.324Z,97052.31
2022-11-16T03:47:57.294Z,97053.41
2022-11-16T03:48:59.279Z,97060.59
2022-11-16T03:50:04.135Z,97055.75
2022-11-16T03:51:07.992Z,97054.97
2022-11-16T03:52:09.374Z,97054.19
2022-11-16T03:53:11.062Z,97060.28
2022-11-16T03:54:13.535Z,97060.28
2022-11-16T03:55:16.257Z,97071.28
2022-11-16T03:56:19.069Z,97072.72
2022-11-16T03:57:21.238Z,97080.22
2022-11-16T03:58:28.444Z,97086.66
2022-11-16T03:59:30.654Z,97098.00
2022-11-16T04:00:32.363Z,97102.19
2022-11-16T04:01:44.579Z,97104.06
2022-11-16T04:02:47.188Z,97103.31
2022-11-16T04:03:53.485Z,97105.50
2022-11-16T04:04:54.913Z,97110.78
2022-11-16T04:05:57.749Z,97111.13
2022-11-16T04:06:59.656Z,97117.97
2022-11-16T04:08:01.420Z,97118.75
2022-11-16T04:09:02.887Z,97122.50
2022-11-16T04:10:04.547Z,97117.19
2022-11-16T04:11:06.323Z,97118.75
2022-11-16T04:12:08.609Z,97121.50
2022-11-16T04:13:12.952Z,97121.84
2022-11-16T04:14:17.764Z,97121.50
2022-11-16T04:15:19.120Z,97116.19
2022-11-16T04:16:20.564Z,97110.47
2022-11-16T04:17:23.627Z,97110.47
2022-11-16T04:18:24.959Z,97114.31
2022-11-16T04:19:26.378Z,97109.03
2022-11-16T04:20:27.802Z,97104.84
2022-11-16T04:21:32.417Z,97109.91
2022-11-16T04:22:40.607Z,97107.25
2022-11-16T04:23:43.030Z,97113.66
2022-11-16T04:24:46.519Z,97113.66
2022-11-16T04:25:49.467Z,97105.72
2022-11-16T04:26:57.329Z,97105.72
2022-11-16T04:27:58.996Z,97107.25
2022-11-16T04:29:00.484Z,97121.06
2022-11-16T04:30:02.968Z,97124.47
2022-11-16T04:31:06.866Z,97121.81
2022-11-16T04:32:10.068Z,97122.63
2022-11-16T04:33:11.608Z,97124.94
2022-11-16T04:34:13.296Z,97120.06
2022-11-16T04:35:20.028Z,97122.03
2022-11-16T04:36:21.600Z,97119.06
2022-11-16T04:37:23.136Z,97122.81
2022-11-16T04:38:24.479Z,97111.88
2022-11-16T04:39:25.869Z,97113.41
2022-11-16T04:40:27.785Z,97120.59
2022-11-16T04:41:30.438Z,97118.72
2022-11-16T04:42:32.133Z,97124.00
2022-11-16T04:43:33.535Z,97116.84
2022-11-16T04:44:36.134Z,97119.50
2022-11-16T04:45:37.709Z,97119.50
2022-11-16T04:46:39.160Z,97123.69
2022-11-16T04:47:40.653Z,97116.84
2022-11-16T04:48:42.009Z,97125.56
2022-11-16T04:49:44.142Z,97117.63
2022-11-16T04:50:46.712Z,97115.75
2022-11-16T04:51:48.356Z,97119.94
2022-11-16T04:52:49.803Z,97114.63
2022-11-16T04:53:51.310Z,97113.53
2022-11-16T04:54:56.385Z,97109.00
2022-11-16T04:56:00.873Z,97112.41
2022-11-16T04:57:02.801Z,97112.00
2022-11-16T04:58:04.468Z,97106.03
2022-11-16T04:59:06.032Z,97104.91
2022-11-16T05:00:07.867Z,97097.31
2022-11-16T05:01:11.114Z,97099.97
2022-11-16T05:02:12.564Z,97099.63
2022-11-16T05:03:25.225Z,97098.84
2022-11-16T05:04:26.598Z,97096.50
2022-11-16T05:05:28.194Z,97103.69
2022-11-16T05:06:32.982Z,97100.72
2022-11-16T05:07:34.536Z,97105.34
2022-11-16T05:08:41.284Z,97103.81
2022-11-16T05:09:43.737Z,97113.22
2022-11-16T05:10:50.046Z,97107.91
2022-11-16T05:11:51.676Z,97107.13
2022-11-16T05:12:53.162Z,97102.16
2022-11-16T05:13:54.595Z,97101.94
2022-11-16T05:14:56.336Z,97095.84
2022-11-16T05:15:59.981Z,97106.88
2022-11-16T05:17:01.571Z,97113.06
2022-11-16T05:18:03.801Z,97105.44
2022-11-16T05:19:05.285Z,97096.28
2022-11-16T05:20:10.843Z,97102.69
2022-11-16T05:21:19.935Z,97105.69
2022-11-16T05:22:21.756Z,97101.38
2022-11-16T05:23:24.576Z,97105.56
2022-11-16T05:24:26.047Z,97102.16
2022-11-16T05:25:28.563Z,97105.56
2022-11-16T05:26:33.423Z,97109.34
2022-11-16T05:27:35.998Z,97107.47
2022-11-16T05:28:38.093Z,97115.41
2022-11-16T05:29:40.575Z,97110.44
2022-11-16T05:30:45.244Z,97116.50
2022-11-16T05:31:48.479Z,97115.75
2022-11-16T05:32:49.875Z,97108.22
2022-11-16T05:33:53.770Z,97115.84
2022-11-16T05:34:55.236Z,97111.75
2022-11-16T05:35:57.841Z,97116.63
2022-11-16T05:36:59.456Z,97118.50
2022-11-16T05:38:01.540Z,97119.59
2022-11-16T05:39:04.298Z,97112.75
2022-11-16T05:40:08.510Z,97119.50
2022-11-16T05:41:23.243Z,97120.28
2022-11-16T05:42:25.102Z,97127.88
2022-11-16T05:43:28.795Z,97119.16
2022-11-16T05:44:50.424Z,97118.72
2022-11-16T05:45:51.865Z,97121.34
2022-11-16T05:46:54.058Z,97124.00
2022-11-16T05:47:55.667Z,97125.88
2022-11-16T05:48:57.074Z,97124.69
2022-11-16T05:49:59.351Z,97123.59
2022-11-16T05:51:04.777Z,97120.81
2022-11-16T05:52:08.636Z,97124.69
2022-11-16T05:53:10.275Z,97130.00
2022-11-16T05:54:13.789Z,97125.03
2022-11-16T05:55:15.425Z,97120.50
2022-11-16T05:56:18.549Z,97126.22
2022-11-16T05:57:20.301Z,97123.94
2022-11-16T05:58:21.698Z,97117.16
2022-11-16T05:59:25.040Z,97119.41
2022-11-16T06:00:29.497Z,97117.84
2022-11-16T06:01:30.924Z,97115.53
2022-11-16T06:02:33.203Z,97114.31
2022-11-16T06:03:35.217Z,97115.75
2022-11-16T06:04:36.859Z,97112.34
2022-11-16T06:05:40.719Z,97120.63
2022-11-16T06:06:43.884Z,97112.69
2022-11-16T06:07:46.448Z,97116.09
2022-11-16T06:08:47.863Z,97116.09
2022-11-16T06:09:54.365Z,97116.09
2022-11-16T06:10:58.493Z,97107.38
2022-11-16T06:12:03.060Z,97126.69
2022-11-16T06:13:04.693Z,97119.09
2022-11-16T06:14:06.987Z,97122.03
2022-11-16T06:15:09.926Z,97116.75
2022-11-16T06:16:11.539Z,97119.41
2022-11-16T06:17:16.138Z,97120.63
2022-11-16T06:18:18.564Z,97121.38
2022-11-16T06:19:20.084Z,97117.19
2022-11-16T06:20:21.857Z,97120.97
2022-11-16T06:21:23.232Z,97116.66
2022-11-16T06:22:24.682Z,97113.66
2022-11-16T06:23:26.648Z,97122.72
2022-11-16T06:24:28.778Z,97127.25
2022-11-16T06:25:30.132Z,97128.34
2022-11-16T06:26:31.848Z,97130.97
2022-11-16T06:27:33.242Z,97137.09
2022-11-16T06:28:35.272Z,97136.28
2022-11-16T06:29:36.784Z,97135.19
2022-11-16T06:30:39.032Z,97139.38
2022-11-16T06:31:41.463Z,97129.56
2022-11-16T06:32:42.919Z,97135.63
2022-11-16T06:33:44.517Z,97133.75
2022-11-16T06:34:53.900Z,97143.69
2022-11-16T06:35:55.580Z,97140.69
2022-11-16T06:36:58.886Z,97150.19
2022-11-16T06:38:00.492Z,97148.31
2022-11-16T06:39:01.904Z,97148.75
2022-11-16T06:40:06.363Z,97146.53
2022-11-16T06:41:11.068Z,97155.59
2022-11-16T06:42:17.802Z,97151.84
2022-11-16T06:43:19.893Z,97153.06
2022-11-16T06:44:21.369Z,97161.78
2022-11-16T06:45:30.304Z,97153.94
2022-11-16T06:46:34.428Z,97165.75
2022-11-16T06:47:35.867Z,97162.00
2022-11-16T06:48:37.488Z,97162.00
2022-11-16T06:49:44.482Z,97156.69
2022-11-16T06:50:53.056Z,97167.28
2022-11-16T06:51:55.953Z,97166.97
2022-11-16T06:52:57.355Z,97166.22
2022-11-16T06:53:58.748Z,97169.94
2022-11-16T06:55:01.953Z,97172.28
2022-11-16T06:56:07.197Z,97170.06
2022-11-16T06:57:13.815Z,97171.94
2022-11-16T06:58:15.231Z,97170.06
2022-11-16T06:59:17.756Z,97169.72
2022-11-16T07:00:20.357Z,97172.34
2022-11-16T07:01:24.102Z,97175.78
2022-11-16T07:02:29.813Z,97175.00
2022-11-16T07:03:33.382Z,97179.22
2022-11-16T07:04:37.401Z,97180.31
2022-11-16T07:05:40.132Z,97183.41
2022-11-16T07:06:45.087Z,97180.00
2022-11-16T07:07:52.864Z,97176.56
2022-11-16T07:08:54.274Z,97180.75
2022-11-16T07:09:59.690Z,97183.06
2022-11-16T07:11:04.270Z,97187.59
2022-11-16T07:12:08.706Z,97186.50
2022-11-16T07:13:13.378Z,97194.44
2022-11-16T07:14:14.774Z,97199.97
2022-11-16T07:15:17.566Z,97195.75
2022-11-16T07:16:21.356Z,97196.56
2022-11-16T07:17:33.437Z,97195.00
2022-11-16T07:18:36.035Z,97196.56
2022-11-16T07:19:37.908Z,97198.88
2022-11-16T07:20:40.328Z,97190.91
2022-11-16T07:21:43.189Z,97199.19
2022-11-16T07:22:49.228Z,97203.72
2022-11-16T07:23:53.052Z,97197.31
2022-11-16T07:24:55.747Z,97192.44
2022-11-16T07:26:02.064Z,97204.59
2022-11-16T07:27:10.993Z,97204.28
2022-11-16T07:28:15.754Z,97205.47
2022-11-16T07:29:17.173Z,97201.28
2022-11-16T07:30:37.413Z,97204.69
2022-11-16T07:31:42.924Z,97209.66
2022-11-16T07:33:02.848Z,97211.22
2022-11-16T07:34:24.168Z,97207.47
2022-11-16T07:35:38.453Z,97212.44
2022-11-16T07:36:39.808Z,97214.75
2022-11-16T07:37:45.384Z,97211.44
2022-11-16T07:38:48.790Z,97212.97
2022-11-16T07:39:50.392Z,97216.72
2022-11-16T07:40:51.895Z,97217.97
2022-11-16T07:41:55.610Z,97218.72
2022-11-16T07:43:02.091Z,97218.38
2022-11-16T07:44:26.372Z,97220.38
2022-11-16T07:45:40.989Z,97221.56
2022-11-16T07:46:47.109Z,97220.56
2022-11-16T07:47:49.731Z,97218.34
2022-11-16T07:48:57.507Z,97221.88
2022-11-16T07:50:23.431Z,97225.75
2022-11-16T07:51:25.945Z,97233.03
2022-11-16T07:52:44.075Z,97224.41
2022-11-16T07:53:53.846Z,97228.59
2022-11-16T07:54:55.293Z,97226.06
2022-11-16T07:55:59.727Z,97228.03
2022-11-16T07:57:03.081Z,97230.78
2022-11-16T07:58:04.756Z,97223.59
2022-11-16T07:59:06.183Z,97232.00
2022-11-16T08:00:11.317Z,97222.59
2022-11-16T08:01:19.592Z,97221.91
2022-11-16T08:02:24.806Z,97224.69
2022-11-16T08:03:26.937Z,97224.78
2022-11-16T08:04:29.218Z,97223.66
2022-11-16T08:05:30.650Z,97221.44
2022-11-16T08:06:32.109Z,97230.63
2022-11-16T08:07:34.084Z,97229.50
2022-11-16T08:08:35.779Z,97233.81
2022-11-16T08:09:37.368Z,97233.81
2022-11-16T08:10:39.050Z,97232.34
2022-11-16T08:11:40.482Z,97235.00
2022-11-16T08:12:41.998Z,97236.56
2022-11-16T08:13:43.620Z,97232.34
2022-11-16T08:14:45.281Z,97235.00
2022-11-16T08:15:47.723Z,97238.00
2022-11-16T08:16:49.115Z,97230.81
2022-11-16T08:17:51.887Z,97238.41
2022-11-16T08:18:53.275Z,97242.28
2022-11-16T08:19:54.644Z,97233.97
2022-11-16T08:20:58.344Z,97239.75
2022-11-16T08:21:59.873Z,97231.31
2022-11-16T08:23:03.889Z,97234.44
2022-11-16T08:24:08.660Z,97228.78
2022-11-16T08:25:13.649Z,97226.66
2022-11-16T08:26:18.066Z,97232.81
2022-11-16T08:27:24.104Z,97231.41
2022-11-16T08:28:28.694Z,97233.69
2022-11-16T08:29:30.066Z,97226.50
2022-11-16T08:30:32.454Z,97226.59
2022-11-16T08:31:34.373Z,97230.44
2022-11-16T08:32:42.797Z,97230.56
2022-11-16T08:33:45.633Z,97231.66
2022-11-16T08:34:47.576Z,97228.66
2022-11-16T08:35:50.908Z,97235.50
2022-11-16T08:36:53.667Z,97233.97
2022-11-16T08:38:00.896Z,97236.28
2022-11-16T08:39:03.184Z,97240.50
2022-11-16T08:40:06.474Z,97237.50
2022-11-16T08:41:12.347Z,97234.06
2022-11-16T08:42:13.778Z,97236.13
2022-11-16T08:43:19.307Z,97242.34
2022-11-16T08:44:21.562Z,97237.38
2022-11-16T08:45:27.010Z,97233.69
2022-11-16T08:46:29.967Z,97234.53
2022-11-16T08:47:41.189Z,97228.19
2022-11-16T08:48:42.977Z,97236.94
2022-11-16T08:49:49.378Z,97237.81
2022-11-16T08:51:15.818Z,97239.44
2022-11-16T08:52:14.531Z,97242.59
2022-11-16T08:53:17.068Z,97243.47
2022-11-16T08:54:18.924Z,97245.34
2022-11-16T08:55:20.340Z,97247.25
2022-11-16T08:56:22.220Z,97250.41
2022-11-16T08:57:23.571Z,97251.53
2022-11-16T08:58:30.494Z,97243.91
2022-11-16T08:59:31.994Z,97250.00
2022-11-16T09:00:40.217Z,97251.13
2022-11-16T09:01:41.636Z,97246.47
2022-11-16T09:02:43.037Z,97257.09
2022-11-16T09:03:44.684Z,97251.78
2022-11-16T09:04:46.653Z,97257.88
2022-11-16T09:05:47.997Z,97246.47
2022-11-16T09:06:49.365Z,97248.47
2022-11-16T09:07:50.739Z,97248.09
2022-11-16T09:08:52.440Z,97247.34
2022-11-16T09:09:53.753Z,97256.84
2022-11-16T09:10:55.101Z,97245.09
2022-11-16T09:11:56.488Z,97247.00
2022-11-16T09:12:57.822Z,97248.88
2022-11-16T09:13:59.280Z,97246.63
2022-11-16T09:15:00.654Z,97256.94
2022-11-16T09:16:02.105Z,97266.47
2022-11-16T09:17:03.518Z,97261.13
2022-11-16T09:18:04.844Z,97264.91
2022-11-16T09:19:06.187Z,97257.72
2022-11-16T09:20:08.197Z,97255.81
2022-11-16T09:21:09.526Z,97258.75
2022-11-16T09:22:10.922Z,97261.81
2022-11-16T09:23:12.248Z,97254.59
2022-11-16T09:24:13.633Z,97257.28
2022-11-16T09:25:15.016Z,97258.47
2022-11-16T09:26:17.108Z,97260.38
2022-11-16T09:27:18.418Z,97258.47
2022-11-16T09:28:20.506Z,97254.34
2022-11-16T09:29:22.016Z,97257.47
2022-11-16T09:30:23.347Z,97263.19
2022-11-16T09:31:25.300Z,97252.13
2022-11-16T09:32:26.635Z,97253.59
2022-11-16T09:33:28.785Z,97248.97
2022-11-16T09:34:30.156Z,97257.34
2022-11-16T09:35:33.288Z,97250.31
2022-11-16T09:36:34.733Z,97257.28
2022-11-16T09:37:36.080Z,97250.31
2022-11-16T09:39:13.951Z,97249.56
2022-11-16T09:40:03.203Z,97258.66
2022-11-16T09:41:13.925Z,97254.44
2022-11-16T09:42:34.102Z,97255.91
2022-11-16T09:43:54.079Z,97255.47
2022-11-16T09:44:55.426Z,97256.59
2022-11-16T09:45:56.761Z,97254.25
2022-11-16T09:46:59.498Z,97257.72
2022-11-16T09:48:03.452Z,97255.13
2022-11-16T09:49:17.425Z,97253.22
2022-11-16T09:50:27.062Z,97261.56
2022-11-16T09:51:31.529Z,97262.69
2022-11-16T09:52:32.876Z,97262.78
2022-11-16T09:53:40.003Z,97263.09
2022-11-16T09:54:43.127Z,97263.44
2022-11-16T09:55:50.775Z,97261.56
2022-11-16T09:56:54.188Z,97268.09
2022-11-16T09:57:58.152Z,97266.19
2022-11-16T09:59:05.511Z,97262.41
2022-11-16T10:00:21.546Z,97266.97
2022-11-16T10:01:26.171Z,97270.41
2022-11-16T10:02:44.129Z,97266.19
2022-11-16T10:03:47.738Z,97261.22
2022-11-16T10:04:58.269Z,97261.56
2022-11-16T10:06:01.936Z,97258.91
2022-11-16T10:07:06.115Z,97260.78
2022-11-16T10:08:14.400Z,97264.63
2022-11-16T10:09:16.144Z,97257.09
2022-11-16T10:10:43.904Z,97254.53
2022-11-16T10:12:03.947Z,97253.84
2022-11-16T10:13:23.764Z,97247.59
2022-11-16T10:14:36.321Z,97256.59
2022-11-16T10:15:57.915Z,97254.59
2022-11-16T10:17:14.346Z,97256.81
2022-11-16T10:18:32.136Z,97253.28
2022-11-16T10:19:33.484Z,97253.09
2022-11-16T10:20:37.898Z,97254.97
2022-11-16T10:21:48.283Z,97250.06
2022-11-16T10:23:05.212Z,97251.19
2022-11-16T10:24:25.209Z,97248.69
2022-11-16T10:25:32.976Z,97253.94
2022-11-16T10:26:37.420Z,97245.53
2022-11-16T10:27:45.217Z,97249.66
2022-11-16T10:28:46.561Z,97251.13
2022-11-16T10:29:50.645Z,97243.84
2022-11-16T10:30:59.180Z,97237.72
2022-11-16T10:32:07.875Z,97240.66
2022-11-16T10:33:15.629Z,97236.81
2022-11-16T10:34:24.977Z,97247.38
2022-11-16T10:35:32.861Z,97241.28
2022-11-16T10:36:35.845Z,97246.50
2022-11-16T10:37:39.811Z,97237.00
2022-11-16T10:38:41.882Z,97238.13
2022-11-16T10:39:43.545Z,97237.34
2022-11-16T10:40:49.409Z,97237.28
2022-11-16T10:41:51.187Z,97242.50
2022-11-16T10:42:57.747Z,97228.44
2022-11-16T10:43:59.430Z,97237.53
2022-11-16T10:45:09.765Z,97227.66
2022-11-16T10:46:17.126Z,97233.06
2022-11-16T10:47:21.912Z,97240.69
2022-11-16T10:48:34.527Z,97237.72
2022-11-16T10:49:46.560Z,97238.53
2022-11-16T10:50:48.829Z,97239.31
2022-11-16T10:51:50.277Z,97235.97
2022-11-16T10:52:51.605Z,97234.84
2022-11-16T10:53:52.926Z,97228.84
2022-11-16T10:54:54.495Z,97225.91
2022-11-16T10:56:16.084Z,97226.75
2022-11-16T10:57:17.866Z,97222.78
2022-11-16T10:58:19.278Z,97219.84
2022-11-16T10:59:20.851Z,97217.19
2022-11-16T11:00:41.779Z,97219.34
2022-11-16T11:01:47.126Z,97214.81
2022-11-16T11:02:48.521Z,97212.41
2022-11-16T11:03:49.843Z,97212.34
2022-11-16T11:05:20.643Z,97217.31
2022-11-16T11:06:24.725Z,97207.09
2022-11-16T11:07:38.807Z,97210.38
2022-11-16T11:08:40.265Z,97202.91
2022-11-16T11:09:41.641Z,97203.31
2022-11-16T11:10:56.739Z,97208.00
2022-11-16T11:12:18.337Z,97209.63
2022-11-16T11:13:22.425Z,97211.97
2022-11-16T11:14:23.796Z,97212.78
2022-11-16T11:15:26.617Z,97210.63
2022-11-16T11:16:28.236Z,97213.00
2022-11-16T11:17:30.720Z,97209.22
2022-11-16T11:18:32.057Z,97202.34
2022-11-16T11:19:33.456Z,97196.41
2022-11-16T11:20:34.992Z,97206.38
2022-11-16T11:21:36.329Z,97201.53
2022-11-16T11:22:49.936Z,97208.09
2022-11-16T11:23:52.865Z,97205.50
2022-11-16T11:24:54.551Z,97213.13
2022-11-16T11:26:00.064Z,97198.69
2022-11-16T11:27:01.467Z,97202.19
2022-11-16T11:28:25.773Z,97201.81
2022-11-16T11:29:30.157Z,97209.59
2022-11-16T11:30:31.504Z,97206.56
2022-11-16T11:31:39.993Z,97201.69
2022-11-16T11:32:41.409Z,97200.91
2022-11-16T11:33:48.173Z,97197.19
2022-11-16T11:34:52.104Z,97197.94
2022-11-16T11:35:57.367Z,97200.31
2022-11-16T11:37:01.166Z,97199.88
2022-11-16T11:38:07.736Z,97200.69
2022-11-16T11:39:12.460Z,97198.78
2022-11-16T11:40:21.667Z,97190.78
2022-11-16T11:41:23.687Z,97196.53
2022-11-16T11:42:25.206Z,97186.34
2022-11-16T11:43:27.082Z,97189.53
2022-11-16T11:44:37.601Z,97179.75
2022-11-16T11:45:45.082Z,97189.00
2022-11-16T11:47:35.026Z,97187.84
2022-11-16T11:48:22.584Z,97184.19
2022-11-16T11:49:33.218Z,97186.53
2022-11-16T11:50:35.133Z,97188.13
2022-11-16T11:51:41.485Z,97186.94
2022-11-16T11:52:50.393Z,97188.31
2022-11-16T11:53:54.179Z,97187.91
2022-11-16T11:54:55.848Z,97186.69
2022-11-16T11:55:59.057Z,97190.75
2022-11-16T11:57:03.078Z,97181.59
2022-11-16T11:58:05.796Z,97187.22
2022-11-16T11:59:07.168Z,97186.81
2022-11-16T12:00:08.833Z,97183.34
2022-11-16T12:01:12.888Z,97188.38
2022-11-16T12:02:41.350Z,97187.53
2022-11-16T12:03:42.779Z,97193.16
2022-11-16T12:05:03.086Z,97189.22
2022-11-16T12:06:04.458Z,97195.00
2022-11-16T12:07:24.712Z,97184.97
2022-11-16T12:08:38.282Z,97184.50
2022-11-16T12:09:39.601Z,97186.38
2022-11-16T12:10:40.920Z,97184.09
2022-11-16T12:11:54.288Z,97177.53
2022-11-16T12:13:07.901Z,97180.34
2022-11-16T12:14:09.269Z,97175.09
2022-11-16T12:15:34.048Z,97177.75
2022-11-16T12:16:41.672Z,97174.66
2022-11-16T12:17:46.055Z,97183.38
2022-11-16T12:18:53.346Z,97181.44
2022-11-16T12:19:57.811Z,97166.97
2022-11-16T12:21:11.349Z,97166.13
2022-11-16T12:22:34.805Z,97166.91
2022-11-16T12:23:38.958Z,97168.25
2022-11-16T12:24:49.685Z,97168.22
2022-11-16T12:25:58.693Z,97163.59
2022-11-16T12:27:03.048Z,97166.13
2022-11-16T12:28:27.434Z,97166.84
2022-11-16T12:29:34.890Z,97166.00
2022-11-16T12:30:53.168Z,97167.78
2022-11-16T12:31:54.561Z,97160.25
2022-11-16T12:33:22.925Z,97158.00
2022-11-16T12:34:31.155Z,97161.88
2022-11-16T12:35:38.499Z,97154.69
2022-11-16T12:37:03.509Z,97159.47
2022-11-16T12:38:04.951Z,97163.28
2022-11-16T12:39:14.243Z,97157.28
2022-11-16T12:40:29.842Z,97157.44
2022-11-16T12:41:47.876Z,97163.91
2022-11-16T12:43:27.670Z,97154.38